sensor_id;sensor_type;location;lat;lon;timestamp;P1;durP1;ratioP1;P2;durP2;ratioP2
24897;SDS011;12957;49.434;8.684;2022-07-18T00:01:45;1.40;;;1.30;;
24897;SDS011;12957;49.434;8.684;2022-07-18T00:04:10;1.42;;;1.20;;
24897;SDS011;12957;49.434;8.684;2022-07-18T00:06:36;2.92;;;1.10;;
24897;SDS011;12957;49.434;8.684;2022-07-18T00:09:02;2.35;;;1.30;;
24897;SDS011;12957;49.434;8.684;2022-07-18T00:11:28;1.45;;;1.17;;
24897;SDS011;12957;49.434;8.684;2022-07-18T00:13:54;1.15;;;0.90;;
24897;SDS011;12957;49.434;8.684;2022-07-18T00:16:20;1.58;;;1.30;;
24897;SDS011;12957;49.434;8.684;2022-07-18T00:18:46;3.97;;;1.20;;
24897;SDS011;12957;49.434;8.684;2022-07-18T00:21:11;3.65;;;1.30;;
24897;SDS011;12957;49.434;8.684;2022-07-18T00:23:37;1.75;;;1.17;;
24897;SDS011;12957;49.434;8.684;2022-07-18T00:26:02;1.33;;;1.23;;
24897;SDS011;12957;49.434;8.684;2022-07-18T00:28:28;2.40;;;0.93;;
24897;SDS011;12957;49.434;8.684;2022-07-18T00:30:54;1.15;;;1.15;;
24897;SDS011;12957;49.434;8.684;2022-07-18T00:33:19;2.55;;;1.10;;
24897;SDS011;12957;49.434;8.684;2022-07-18T00:35:45;3.75;;;1.40;;
24897;SDS011;12957;49.434;8.684;2022-07-18T00:38:10;1.17;;;1.10;;
24897;SDS011;12957;49.434;8.684;2022-07-18T00:40:36;3.30;;;1.40;;
24897;SDS011;12957;49.434;8.684;2022-07-18T00:43:01;1.45;;;1.23;;
24897;SDS011;12957;49.434;8.684;2022-07-18T00:45:27;2.15;;;1.52;;
24897;SDS011;12957;49.434;8.684;2022-07-18T00:47:52;2.90;;;1.30;;
24897;SDS011;12957;49.434;8.684;2022-07-18T00:50:18;1.33;;;1.20;;
24897;SDS011;12957;49.434;8.684;2022-07-18T00:52:44;4.85;;;1.30;;
24897;SDS011;12957;49.434;8.684;2022-07-18T00:55:10;1.42;;;1.00;;
24897;SDS011;12957;49.434;8.684;2022-07-18T00:57:36;6.75;;;1.30;;
24897;SDS011;12957;49.434;8.684;2022-07-18T01:00:05;1.05;;;0.95;;
24897;SDS011;12957;49.434;8.684;2022-07-18T01:02:49;1.35;;;1.13;;
24897;SDS011;12957;49.434;8.684;2022-07-18T01:05:15;1.90;;;1.40;;
24897;SDS011;12957;49.434;8.684;2022-07-18T01:07:40;4.43;;;1.00;;
24897;SDS011;12957;49.434;8.684;2022-07-18T01:10:06;2.63;;;1.40;;
24897;SDS011;12957;49.434;8.684;2022-07-18T01:12:32;3.85;;;1.38;;
24897;SDS011;12957;49.434;8.684;2022-07-18T01:14:58;0.98;;;0.98;;
24897;SDS011;12957;49.434;8.684;2022-07-18T01:17:24;1.25;;;1.20;;
24897;SDS011;12957;49.434;8.684;2022-07-18T01:19:49;2.30;;;1.25;;
24897;SDS011;12957;49.434;8.684;2022-07-18T01:22:16;2.17;;;1.40;;
24897;SDS011;12957;49.434;8.684;2022-07-18T01:24:43;1.13;;;1.13;;
24897;SDS011;12957;49.434;8.684;2022-07-18T01:27:08;1.50;;;1.40;;
24897;SDS011;12957;49.434;8.684;2022-07-18T01:29:37;3.65;;;1.20;;
24897;SDS011;12957;49.434;8.684;2022-07-18T01:32:03;1.60;;;1.25;;
24897;SDS011;12957;49.434;8.684;2022-07-18T01:34:30;5.82;;;1.55;;
24897;SDS011;12957;49.434;8.684;2022-07-18T01:36:55;1.60;;;1.40;;
24897;SDS011;12957;49.434;8.684;2022-07-18T01:39:21;1.52;;;1.35;;
24897;SDS011;12957;49.434;8.684;2022-07-18T01:41:53;3.47;;;1.45;;
24897;SDS011;12957;49.434;8.684;2022-07-18T01:44:22;3.10;;;1.42;;
24897;SDS011;12957;49.434;8.684;2022-07-18T01:46:48;1.33;;;1.20;;
24897;SDS011;12957;49.434;8.684;2022-07-18T01:49:13;2.25;;;1.33;;
24897;SDS011;12957;49.434;8.684;2022-07-18T01:51:39;1.75;;;1.38;;
24897;SDS011;12957;49.434;8.684;2022-07-18T01:54:04;2.55;;;1.42;;
24897;SDS011;12957;49.434;8.684;2022-07-18T01:56:30;1.55;;;1.10;;
24897;SDS011;12957;49.434;8.684;2022-07-18T01:58:56;1.92;;;1.40;;
24897;SDS011;12957;49.434;8.684;2022-07-18T02:01:21;3.60;;;1.30;;
24897;SDS011;12957;49.434;8.684;2022-07-18T02:03:47;2.75;;;1.52;;
24897;SDS011;12957;49.434;8.684;2022-07-18T02:06:12;3.60;;;1.27;;
24897;SDS011;12957;49.434;8.684;2022-07-18T02:08:38;1.25;;;1.20;;
24897;SDS011;12957;49.434;8.684;2022-07-18T02:11:03;2.60;;;1.15;;
24897;SDS011;12957;49.434;8.684;2022-07-18T02:13:29;1.48;;;1.38;;
24897;SDS011;12957;49.434;8.684;2022-07-18T02:15:54;1.10;;;1.00;;
24897;SDS011;12957;49.434;8.684;2022-07-18T02:18:21;1.85;;;1.30;;
24897;SDS011;12957;49.434;8.684;2022-07-18T02:20:46;3.10;;;1.30;;
24897;SDS011;12957;49.434;8.684;2022-07-18T02:23:12;1.40;;;1.30;;
24897;SDS011;12957;49.434;8.684;2022-07-18T02:25:37;5.03;;;1.55;;
24897;SDS011;12957;49.434;8.684;2022-07-18T02:28:03;1.60;;;1.30;;
24897;SDS011;12957;49.434;8.684;2022-07-18T02:30:29;2.58;;;1.50;;
24897;SDS011;12957;49.434;8.684;2022-07-18T02:32:55;1.52;;;1.42;;
24897;SDS011;12957;49.434;8.684;2022-07-18T02:35:20;1.48;;;1.38;;
24897;SDS011;12957;49.434;8.684;2022-07-18T02:37:46;2.05;;;1.33;;
24897;SDS011;12957;49.434;8.684;2022-07-18T02:40:11;1.85;;;1.50;;
24897;SDS011;12957;49.434;8.684;2022-07-18T02:42:37;1.98;;;1.25;;
24897;SDS011;12957;49.434;8.684;2022-07-18T02:45:04;1.42;;;1.00;;
24897;SDS011;12957;49.434;8.684;2022-07-18T02:47:30;1.98;;;1.40;;
24897;SDS011;12957;49.434;8.684;2022-07-18T02:49:55;3.03;;;1.20;;
24897;SDS011;12957;49.434;8.684;2022-07-18T02:52:21;1.58;;;1.10;;
24897;SDS011;12957;49.434;8.684;2022-07-18T02:54:46;3.75;;;1.50;;
24897;SDS011;12957;49.434;8.684;2022-07-18T02:57:12;2.10;;;1.10;;
24897;SDS011;12957;49.434;8.684;2022-07-18T02:59:37;1.25;;;1.15;;
24897;SDS011;12957;49.434;8.684;2022-07-18T03:02:03;1.00;;;1.00;;
24897;SDS011;12957;49.434;8.684;2022-07-18T03:04:28;2.33;;;1.20;;
24897;SDS011;12957;49.434;8.684;2022-07-18T03:06:54;1.27;;;1.13;;
24897;SDS011;12957;49.434;8.684;2022-07-18T03:09:20;1.48;;;1.27;;
24897;SDS011;12957;49.434;8.684;2022-07-18T03:11:45;2.10;;;1.50;;
24897;SDS011;12957;49.434;8.684;2022-07-18T03:14:11;1.20;;;1.20;;
24897;SDS011;12957;49.434;8.684;2022-07-18T03:16:37;3.13;;;1.23;;
24897;SDS011;12957;49.434;8.684;2022-07-18T03:19:03;1.73;;;1.20;;
24897;SDS011;12957;49.434;8.684;2022-07-18T03:21:28;1.20;;;1.20;;
24897;SDS011;12957;49.434;8.684;2022-07-18T03:23:54;1.70;;;1.30;;
24897;SDS011;12957;49.434;8.684;2022-07-18T03:26:20;1.30;;;1.20;;
24897;SDS011;12957;49.434;8.684;2022-07-18T03:28:46;2.33;;;1.30;;
24897;SDS011;12957;49.434;8.684;2022-07-18T03:31:11;1.65;;;1.17;;
24897;SDS011;12957;49.434;8.684;2022-07-18T03:33:37;3.50;;;1.33;;
24897;SDS011;12957;49.434;8.684;2022-07-18T03:36:03;1.20;;;1.17;;
24897;SDS011;12957;49.434;8.684;2022-07-18T03:38:29;1.25;;;1.05;;
24897;SDS011;12957;49.434;8.684;2022-07-18T03:40:54;1.40;;;1.30;;
24897;SDS011;12957;49.434;8.684;2022-07-18T03:43:20;3.40;;;1.50;;
24897;SDS011;12957;49.434;8.684;2022-07-18T03:45:46;1.33;;;1.10;;
24897;SDS011;12957;49.434;8.684;2022-07-18T03:48:12;1.40;;;1.30;;
24897;SDS011;12957;49.434;8.684;2022-07-18T03:50:37;3.88;;;1.20;;
24897;SDS011;12957;49.434;8.684;2022-07-18T03:53:03;1.58;;;1.48;;
24897;SDS011;12957;49.434;8.684;2022-07-18T03:55:28;1.60;;;1.50;;
24897;SDS011;12957;49.434;8.684;2022-07-18T03:57:54;2.78;;;1.55;;
24897;SDS011;12957;49.434;8.684;2022-07-18T04:00:19;2.67;;;1.52;;
24897;SDS011;12957;49.434;8.684;2022-07-18T04:02:45;3.05;;;1.60;;
24897;SDS011;12957;49.434;8.684;2022-07-18T04:05:12;1.67;;;1.58;;
24897;SDS011;12957;49.434;8.684;2022-07-18T04:07:38;2.10;;;1.60;;
24897;SDS011;12957;49.434;8.684;2022-07-18T04:10:04;4.47;;;1.45;;
24897;SDS011;12957;49.434;8.684;2022-07-18T04:12:30;5.82;;;1.40;;
24897;SDS011;12957;49.434;8.684;2022-07-18T04:14:56;2.70;;;1.42;;
24897;SDS011;12957;49.434;8.684;2022-07-18T04:17:21;2.38;;;1.30;;
24897;SDS011;12957;49.434;8.684;2022-07-18T04:19:47;3.42;;;1.58;;
24897;SDS011;12957;49.434;8.684;2022-07-18T04:22:12;1.77;;;1.65;;
24897;SDS011;12957;49.434;8.684;2022-07-18T04:24:38;2.38;;;1.40;;
24897;SDS011;12957;49.434;8.684;2022-07-18T04:27:04;1.40;;;1.30;;
24897;SDS011;12957;49.434;8.684;2022-07-18T04:29:30;4.40;;;1.33;;
24897;SDS011;12957;49.434;8.684;2022-07-18T04:31:57;3.75;;;1.48;;
24897;SDS011;12957;49.434;8.684;2022-07-18T04:34:23;3.35;;;1.63;;
24897;SDS011;12957;49.434;8.684;2022-07-18T04:36:48;1.40;;;1.30;;
24897;SDS011;12957;49.434;8.684;2022-07-18T04:39:14;2.03;;;1.33;;
24897;SDS011;12957;49.434;8.684;2022-07-18T04:41:39;1.58;;;1.48;;
24897;SDS011;12957;49.434;8.684;2022-07-18T04:44:05;4.90;;;1.50;;
24897;SDS011;12957;49.434;8.684;2022-07-18T04:46:30;1.48;;;1.38;;
24897;SDS011;12957;49.434;8.684;2022-07-18T04:48:56;3.47;;;1.48;;
24897;SDS011;12957;49.434;8.684;2022-07-18T04:51:21;2.67;;;1.38;;
24897;SDS011;12957;49.434;8.684;2022-07-18T04:53:47;1.45;;;1.38;;
24897;SDS011;12957;49.434;8.684;2022-07-18T04:56:13;1.65;;;1.40;;
24897;SDS011;12957;49.434;8.684;2022-07-18T04:58:38;4.07;;;1.42;;
24897;SDS011;12957;49.434;8.684;2022-07-18T05:01:04;4.82;;;1.42;;
24897;SDS011;12957;49.434;8.684;2022-07-18T05:03:29;1.33;;;1.30;;
24897;SDS011;12957;49.434;8.684;2022-07-18T05:05:55;1.88;;;1.60;;
24897;SDS011;12957;49.434;8.684;2022-07-18T05:08:20;3.90;;;1.70;;
24897;SDS011;12957;49.434;8.684;2022-07-18T05:10:46;2.20;;;1.67;;
24897;SDS011;12957;49.434;8.684;2022-07-18T05:13:11;1.45;;;1.35;;
24897;SDS011;12957;49.434;8.684;2022-07-18T05:15:37;2.20;;;1.30;;
24897;SDS011;12957;49.434;8.684;2022-07-18T05:18:02;1.77;;;1.58;;
24897;SDS011;12957;49.434;8.684;2022-07-18T05:20:28;1.58;;;1.48;;
24897;SDS011;12957;49.434;8.684;2022-07-18T05:22:53;7.22;;;1.88;;
24897;SDS011;12957;49.434;8.684;2022-07-18T05:25:19;2.45;;;1.67;;
24897;SDS011;12957;49.434;8.684;2022-07-18T05:27:46;4.90;;;1.77;;
24897;SDS011;12957;49.434;8.684;2022-07-18T05:30:12;3.85;;;1.70;;
24897;SDS011;12957;49.434;8.684;2022-07-18T05:32:39;4.47;;;2.13;;
24897;SDS011;12957;49.434;8.684;2022-07-18T05:35:05;3.92;;;1.92;;
24897;SDS011;12957;49.434;8.684;2022-07-18T05:37:31;3.90;;;2.08;;
24897;SDS011;12957;49.434;8.684;2022-07-18T05:39:57;13.55;;;2.00;;
24897;SDS011;12957;49.434;8.684;2022-07-18T05:42:22;1.92;;;1.75;;
24897;SDS011;12957;49.434;8.684;2022-07-18T05:44:48;3.15;;;2.00;;
24897;SDS011;12957;49.434;8.684;2022-07-18T05:47:13;2.50;;;1.70;;
24897;SDS011;12957;49.434;8.684;2022-07-18T05:49:39;2.72;;;1.77;;
24897;SDS011;12957;49.434;8.684;2022-07-18T05:52:05;10.13;;;2.67;;
24897;SDS011;12957;49.434;8.684;2022-07-18T05:54:31;13.18;;;2.83;;
24897;SDS011;12957;49.434;8.684;2022-07-18T05:56:56;4.97;;;2.00;;
24897;SDS011;12957;49.434;8.684;2022-07-18T05:59:22;6.88;;;2.45;;
24897;SDS011;12957;49.434;8.684;2022-07-18T06:01:47;7.97;;;1.92;;
24897;SDS011;12957;49.434;8.684;2022-07-18T06:04:13;2.08;;;1.85;;
24897;SDS011;12957;49.434;8.684;2022-07-18T06:06:38;5.85;;;2.00;;
24897;SDS011;12957;49.434;8.684;2022-07-18T06:09:04;2.58;;;1.50;;
24897;SDS011;12957;49.434;8.684;2022-07-18T06:11:30;3.92;;;1.92;;
24897;SDS011;12957;49.434;8.684;2022-07-18T06:13:56;12.95;;;2.08;;
24897;SDS011;12957;49.434;8.684;2022-07-18T06:16:21;2.03;;;1.55;;
24897;SDS011;12957;49.434;8.684;2022-07-18T06:18:47;5.45;;;2.20;;
24897;SDS011;12957;49.434;8.684;2022-07-18T06:21:12;3.97;;;1.80;;
24897;SDS011;12957;49.434;8.684;2022-07-18T06:23:38;3.72;;;1.83;;
24897;SDS011;12957;49.434;8.684;2022-07-18T06:26:04;2.22;;;1.70;;
24897;SDS011;12957;49.434;8.684;2022-07-18T06:28:30;2.95;;;1.95;;
24897;SDS011;12957;49.434;8.684;2022-07-18T06:30:55;3.58;;;1.70;;
24897;SDS011;12957;49.434;8.684;2022-07-18T06:33:21;1.60;;;1.50;;
24897;SDS011;12957;49.434;8.684;2022-07-18T06:35:47;7.68;;;2.03;;
24897;SDS011;12957;49.434;8.684;2022-07-18T06:38:13;2.00;;;1.65;;
24897;SDS011;12957;49.434;8.684;2022-07-18T06:40:38;4.07;;;1.60;;
24897;SDS011;12957;49.434;8.684;2022-07-18T06:43:04;3.47;;;1.85;;
24897;SDS011;12957;49.434;8.684;2022-07-18T06:45:31;2.10;;;1.70;;
24897;SDS011;12957;49.434;8.684;2022-07-18T06:47:56;4.55;;;1.92;;
24897;SDS011;12957;49.434;8.684;2022-07-18T06:50:22;2.00;;;1.73;;
24897;SDS011;12957;49.434;8.684;2022-07-18T06:52:47;6.97;;;2.08;;
24897;SDS011;12957;49.434;8.684;2022-07-18T06:55:13;1.65;;;1.55;;
24897;SDS011;12957;49.434;8.684;2022-07-18T06:57:39;5.45;;;1.83;;
24897;SDS011;12957;49.434;8.684;2022-07-18T07:00:05;6.38;;;2.05;;
24897;SDS011;12957;49.434;8.684;2022-07-18T07:02:31;3.03;;;1.70;;
24897;SDS011;12957;49.434;8.684;2022-07-18T07:04:57;1.80;;;1.70;;
24897;SDS011;12957;49.434;8.684;2022-07-18T07:07:22;6.15;;;2.00;;
24897;SDS011;12957;49.434;8.684;2022-07-18T07:09:48;2.47;;;2.00;;
24897;SDS011;12957;49.434;8.684;2022-07-18T07:12:13;2.63;;;1.80;;
24897;SDS011;12957;49.434;8.684;2022-07-18T07:14:39;4.68;;;1.88;;
24897;SDS011;12957;49.434;8.684;2022-07-18T07:17:04;4.53;;;1.90;;
24897;SDS011;12957;49.434;8.684;2022-07-18T07:19:30;3.28;;;1.65;;
24897;SDS011;12957;49.434;8.684;2022-07-18T07:21:55;2.50;;;1.95;;
24897;SDS011;12957;49.434;8.684;2022-07-18T07:24:21;7.82;;;2.10;;
24897;SDS011;12957;49.434;8.684;2022-07-18T07:26:46;4.30;;;2.13;;
24897;SDS011;12957;49.434;8.684;2022-07-18T07:29:12;7.97;;;1.80;;
24897;SDS011;12957;49.434;8.684;2022-07-18T07:31:38;10.32;;;1.92;;
24897;SDS011;12957;49.434;8.684;2022-07-18T07:34:03;3.50;;;1.83;;
24897;SDS011;12957;49.434;8.684;2022-07-18T07:36:29;5.22;;;1.80;;
24897;SDS011;12957;49.434;8.684;2022-07-18T07:38:54;4.78;;;2.20;;
24897;SDS011;12957;49.434;8.684;2022-07-18T07:41:20;11.05;;;2.50;;
24897;SDS011;12957;49.434;8.684;2022-07-18T07:43:46;5.57;;;2.05;;
24897;SDS011;12957;49.434;8.684;2022-07-18T07:46:11;6.05;;;1.70;;
24897;SDS011;12957;49.434;8.684;2022-07-18T07:48:37;4.90;;;2.00;;
24897;SDS011;12957;49.434;8.684;2022-07-18T07:51:03;4.70;;;2.00;;
24897;SDS011;12957;49.434;8.684;2022-07-18T07:53:29;8.05;;;1.60;;
24897;SDS011;12957;49.434;8.684;2022-07-18T07:55:55;5.40;;;2.28;;
24897;SDS011;12957;49.434;8.684;2022-07-18T07:58:20;6.38;;;1.80;;
24897;SDS011;12957;49.434;8.684;2022-07-18T08:00:46;6.03;;;2.25;;
24897;SDS011;12957;49.434;8.684;2022-07-18T08:03:11;5.22;;;2.80;;
24897;SDS011;12957;49.434;8.684;2022-07-18T08:05:37;5.50;;;2.03;;
24897;SDS011;12957;49.434;8.684;2022-07-18T08:08:04;2.85;;;1.80;;
24897;SDS011;12957;49.434;8.684;2022-07-18T08:10:30;7.68;;;2.10;;
24897;SDS011;12957;49.434;8.684;2022-07-18T08:12:56;4.60;;;1.90;;
24897;SDS011;12957;49.434;8.684;2022-07-18T08:15:22;5.95;;;1.63;;
24897;SDS011;12957;49.434;8.684;2022-07-18T08:17:49;6.18;;;2.00;;
24897;SDS011;12957;49.434;8.684;2022-07-18T08:20:14;3.67;;;1.67;;
24897;SDS011;12957;49.434;8.684;2022-07-18T08:22:56;6.50;;;2.40;;
24897;SDS011;12957;49.434;8.684;2022-07-18T08:25:25;4.80;;;1.67;;
24897;SDS011;12957;49.434;8.684;2022-07-18T08:27:52;2.30;;;1.98;;
24897;SDS011;12957;49.434;8.684;2022-07-18T08:30:18;2.25;;;1.65;;
24897;SDS011;12957;49.434;8.684;2022-07-18T08:32:43;1.95;;;1.85;;
24897;SDS011;12957;49.434;8.684;2022-07-18T08:35:09;5.03;;;1.98;;
24897;SDS011;12957;49.434;8.684;2022-07-18T08:37:34;12.15;;;2.30;;
24897;SDS011;12957;49.434;8.684;2022-07-18T08:40:00;8.13;;;2.10;;
24897;SDS011;12957;49.434;8.684;2022-07-18T08:42:26;3.38;;;1.90;;
24897;SDS011;12957;49.434;8.684;2022-07-18T08:44:53;1.95;;;1.60;;
24897;SDS011;12957;49.434;8.684;2022-07-18T08:47:19;4.40;;;1.85;;
24897;SDS011;12957;49.434;8.684;2022-07-18T08:49:45;1.63;;;1.40;;
24897;SDS011;12957;49.434;8.684;2022-07-18T08:52:11;4.75;;;1.77;;
24897;SDS011;12957;49.434;8.684;2022-07-18T08:54:37;7.13;;;2.50;;
24897;SDS011;12957;49.434;8.684;2022-07-18T08:57:03;7.97;;;2.58;;
24897;SDS011;12957;49.434;8.684;2022-07-18T08:59:28;1.73;;;1.60;;
24897;SDS011;12957;49.434;8.684;2022-07-18T09:01:54;1.63;;;1.48;;
24897;SDS011;12957;49.434;8.684;2022-07-18T09:04:38;5.10;;;2.13;;
24897;SDS011;12957;49.434;8.684;2022-07-18T09:07:06;6.32;;;1.70;;
24897;SDS011;12957;49.434;8.684;2022-07-18T09:09:33;6.70;;;1.58;;
24897;SDS011;12957;49.434;8.684;2022-07-18T09:14:39;3.28;;;1.92;;
24897;SDS011;12957;49.434;8.684;2022-07-18T09:19:43;1.58;;;1.38;;
24897;SDS011;12957;49.434;8.684;2022-07-18T09:22:22;1.58;;;1.35;;
24897;SDS011;12957;49.434;8.684;2022-07-18T09:24:52;2.67;;;1.45;;
24897;SDS011;12957;49.434;8.684;2022-07-18T09:27:38;3.80;;;1.33;;
24897;SDS011;12957;49.434;8.684;2022-07-18T09:32:46;1.50;;;1.17;;
24897;SDS011;12957;49.434;8.684;2022-07-18T09:35:19;2.67;;;1.25;;
24897;SDS011;12957;49.434;8.684;2022-07-18T09:37:53;1.10;;;1.10;;
24897;SDS011;12957;49.434;8.684;2022-07-18T09:40:20;5.38;;;1.48;;
24897;SDS011;12957;49.434;8.684;2022-07-18T09:42:54;1.38;;;1.20;;
24897;SDS011;12957;49.434;8.684;2022-07-18T09:45:22;1.70;;;1.30;;
24897;SDS011;12957;49.434;8.684;2022-07-18T09:47:49;1.67;;;1.33;;
24897;SDS011;12957;49.434;8.684;2022-07-18T09:50:53;2.80;;;1.38;;
24897;SDS011;12957;49.434;8.684;2022-07-18T09:55:56;2.45;;;1.50;;
24897;SDS011;12957;49.434;8.684;2022-07-18T09:58:22;2.92;;;1.45;;
24897;SDS011;12957;49.434;8.684;2022-07-18T10:00:52;1.42;;;1.30;;
24897;SDS011;12957;49.434;8.684;2022-07-18T10:03:19;1.20;;;1.10;;
24897;SDS011;12957;49.434;8.684;2022-07-18T10:05:45;2.13;;;1.10;;
24897;SDS011;12957;49.434;8.684;2022-07-18T10:08:13;4.88;;;1.40;;
24897;SDS011;12957;49.434;8.684;2022-07-18T10:10:42;2.70;;;1.02;;
24897;SDS011;12957;49.434;8.684;2022-07-18T10:13:08;1.42;;;1.23;;
24897;SDS011;12957;49.434;8.684;2022-07-18T10:15:36;2.35;;;1.30;;
24897;SDS011;12957;49.434;8.684;2022-07-18T10:18:03;2.88;;;1.10;;
24897;SDS011;12957;49.434;8.684;2022-07-18T10:20:36;1.55;;;1.08;;
24897;SDS011;12957;49.434;8.684;2022-07-18T10:23:46;3.42;;;1.50;;
24897;SDS011;12957;49.434;8.684;2022-07-18T10:28:29;1.17;;;1.08;;
24897;SDS011;12957;49.434;8.684;2022-07-18T10:30:55;5.30;;;1.63;;
24897;SDS011;12957;49.434;8.684;2022-07-18T10:33:38;11.13;;;1.17;;
24897;SDS011;12957;49.434;8.684;2022-07-18T10:36:11;2.85;;;1.10;;
24897;SDS011;12957;49.434;8.684;2022-07-18T10:38:38;1.25;;;1.15;;
24897;SDS011;12957;49.434;8.684;2022-07-18T10:41:08;2.78;;;1.30;;
24897;SDS011;12957;49.434;8.684;2022-07-18T10:43:42;4.30;;;1.02;;
24897;SDS011;12957;49.434;8.684;2022-07-18T10:46:09;2.40;;;1.30;;
24897;SDS011;12957;49.434;8.684;2022-07-18T10:51:05;1.30;;;1.20;;
24897;SDS011;12957;49.434;8.684;2022-07-18T10:58:56;0.90;;;0.90;;
24897;SDS011;12957;49.434;8.684;2022-07-18T11:01:23;7.70;;;2.13;;
24897;SDS011;12957;49.434;8.684;2022-07-18T11:03:49;1.33;;;1.33;;
24897;SDS011;12957;49.434;8.684;2022-07-18T11:06:15;1.85;;;1.10;;
24897;SDS011;12957;49.434;8.684;2022-07-18T11:08:40;1.35;;;1.25;;
24897;SDS011;12957;49.434;8.684;2022-07-18T11:11:07;1.00;;;1.00;;
24897;SDS011;12957;49.434;8.684;2022-07-18T11:13:34;1.58;;;1.42;;
24897;SDS011;12957;49.434;8.684;2022-07-18T11:18:33;3.55;;;1.40;;
24897;SDS011;12957;49.434;8.684;2022-07-18T11:21:27;1.13;;;1.10;;
24897;SDS011;12957;49.434;8.684;2022-07-18T11:24:09;2.15;;;1.55;;
24897;SDS011;12957;49.434;8.684;2022-07-18T11:26:44;1.70;;;1.40;;
24897;SDS011;12957;49.434;8.684;2022-07-18T11:29:12;3.17;;;1.70;;
24897;SDS011;12957;49.434;8.684;2022-07-18T11:31:46;1.65;;;1.15;;
24897;SDS011;12957;49.434;8.684;2022-07-18T11:34:15;1.20;;;1.20;;
24897;SDS011;12957;49.434;8.684;2022-07-18T11:36:43;4.68;;;1.50;;
24897;SDS011;12957;49.434;8.684;2022-07-18T11:39:10;4.40;;;1.20;;
24897;SDS011;12957;49.434;8.684;2022-07-18T11:41:36;1.88;;;1.20;;
24897;SDS011;12957;49.434;8.684;2022-07-18T11:44:03;2.40;;;1.30;;
24897;SDS011;12957;49.434;8.684;2022-07-18T11:46:28;1.73;;;1.40;;
24897;SDS011;12957;49.434;8.684;2022-07-18T11:49:02;1.48;;;1.35;;
24897;SDS011;12957;49.434;8.684;2022-07-18T11:51:39;4.53;;;1.13;;
24897;SDS011;12957;49.434;8.684;2022-07-18T11:54:06;1.27;;;1.05;;
24897;SDS011;12957;49.434;8.684;2022-07-18T11:56:32;1.50;;;1.40;;
24897;SDS011;12957;49.434;8.684;2022-07-18T11:58:57;2.00;;;1.65;;
24897;SDS011;12957;49.434;8.684;2022-07-18T12:01:30;3.95;;;1.40;;
24897;SDS011;12957;49.434;8.684;2022-07-18T12:03:56;3.05;;;1.70;;
24897;SDS011;12957;49.434;8.684;2022-07-18T12:06:22;2.15;;;1.58;;
24897;SDS011;12957;49.434;8.684;2022-07-18T12:08:49;1.77;;;1.40;;
24897;SDS011;12957;49.434;8.684;2022-07-18T12:11:27;3.10;;;1.50;;
24897;SDS011;12957;49.434;8.684;2022-07-18T12:13:57;1.38;;;1.20;;
24897;SDS011;12957;49.434;8.684;2022-07-18T12:16:47;4.03;;;1.42;;
24897;SDS011;12957;49.434;8.684;2022-07-18T12:19:14;4.38;;;1.25;;
24897;SDS011;12957;49.434;8.684;2022-07-18T12:21:53;1.20;;;1.20;;
24897;SDS011;12957;49.434;8.684;2022-07-18T12:27:09;1.63;;;1.30;;
24897;SDS011;12957;49.434;8.684;2022-07-18T12:32:18;1.80;;;1.20;;
24897;SDS011;12957;49.434;8.684;2022-07-18T12:34:56;1.10;;;1.10;;
24897;SDS011;12957;49.434;8.684;2022-07-18T12:37:24;3.22;;;1.45;;
24897;SDS011;12957;49.434;8.684;2022-07-18T12:39:55;5.38;;;1.55;;
24897;SDS011;12957;49.434;8.684;2022-07-18T12:42:28;3.50;;;1.27;;
24897;SDS011;12957;49.434;8.684;2022-07-18T12:44:58;1.13;;;1.10;;
24897;SDS011;12957;49.434;8.684;2022-07-18T12:47:24;4.53;;;1.45;;
24897;SDS011;12957;49.434;8.684;2022-07-18T12:49:50;2.13;;;1.90;;
24897;SDS011;12957;49.434;8.684;2022-07-18T12:52:16;6.32;;;1.77;;
24897;SDS011;12957;49.434;8.684;2022-07-18T12:54:42;2.63;;;1.40;;
24897;SDS011;12957;49.434;8.684;2022-07-18T12:57:08;2.65;;;1.30;;
24897;SDS011;12957;49.434;8.684;2022-07-18T12:59:33;4.78;;;1.23;;
24897;SDS011;12957;49.434;8.684;2022-07-18T13:01:59;1.23;;;1.20;;
24897;SDS011;12957;49.434;8.684;2022-07-18T13:04:24;4.07;;;1.20;;
24897;SDS011;12957;49.434;8.684;2022-07-18T13:06:50;1.48;;;1.30;;
24897;SDS011;12957;49.434;8.684;2022-07-18T13:09:15;4.72;;;1.90;;
24897;SDS011;12957;49.434;8.684;2022-07-18T13:11:41;3.83;;;1.30;;
24897;SDS011;12957;49.434;8.684;2022-07-18T13:14:11;2.70;;;1.60;;
24897;SDS011;12957;49.434;8.684;2022-07-18T13:16:36;3.58;;;1.40;;
24897;SDS011;12957;49.434;8.684;2022-07-18T13:19:02;2.63;;;1.38;;
24897;SDS011;12957;49.434;8.684;2022-07-18T13:21:27;1.48;;;1.38;;
24897;SDS011;12957;49.434;8.684;2022-07-18T13:23:53;3.30;;;1.30;;
24897;SDS011;12957;49.434;8.684;2022-07-18T13:26:18;1.23;;;1.23;;
24897;SDS011;12957;49.434;8.684;2022-07-18T13:28:44;3.65;;;1.33;;
24897;SDS011;12957;49.434;8.684;2022-07-18T13:31:09;2.83;;;1.45;;
24897;SDS011;12957;49.434;8.684;2022-07-18T13:33:35;1.40;;;1.40;;
24897;SDS011;12957;49.434;8.684;2022-07-18T13:36:01;2.70;;;1.30;;
24897;SDS011;12957;49.434;8.684;2022-07-18T13:38:26;1.63;;;1.20;;
24897;SDS011;12957;49.434;8.684;2022-07-18T13:40:52;2.65;;;1.35;;
24897;SDS011;12957;49.434;8.684;2022-07-18T13:43:18;1.27;;;1.15;;
24897;SDS011;12957;49.434;8.684;2022-07-18T13:45:44;2.45;;;1.40;;
24897;SDS011;12957;49.434;8.684;2022-07-18T13:48:09;4.97;;;1.20;;
24897;SDS011;12957;49.434;8.684;2022-07-18T13:50:35;7.35;;;1.55;;
24897;SDS011;12957;49.434;8.684;2022-07-18T13:53:00;4.13;;;1.70;;
24897;SDS011;12957;49.434;8.684;2022-07-18T13:55:26;1.20;;;1.10;;
24897;SDS011;12957;49.434;8.684;2022-07-18T13:57:51;1.13;;;1.13;;
24897;SDS011;12957;49.434;8.684;2022-07-18T14:00:17;1.48;;;1.38;;
24897;SDS011;12957;49.434;8.684;2022-07-18T14:02:43;6.03;;;1.60;;
24897;SDS011;12957;49.434;8.684;2022-07-18T14:05:09;1.30;;;1.20;;
24897;SDS011;12957;49.434;8.684;2022-07-18T14:07:34;2.42;;;1.20;;
24897;SDS011;12957;49.434;8.684;2022-07-18T14:10:00;1.63;;;1.33;;
24897;SDS011;12957;49.434;8.684;2022-07-18T14:12:25;2.60;;;1.30;;
24897;SDS011;12957;49.434;8.684;2022-07-18T14:14:51;3.65;;;1.25;;
24897;SDS011;12957;49.434;8.684;2022-07-18T14:17:16;1.30;;;1.20;;
24897;SDS011;12957;49.434;8.684;2022-07-18T14:19:42;1.58;;;1.20;;
24897;SDS011;12957;49.434;8.684;2022-07-18T14:22:07;3.60;;;1.48;;
24897;SDS011;12957;49.434;8.684;2022-07-18T14:24:37;1.52;;;1.42;;
24897;SDS011;12957;49.434;8.684;2022-07-18T14:27:03;1.40;;;1.30;;
24897;SDS011;12957;49.434;8.684;2022-07-18T14:29:28;2.10;;;1.30;;
24897;SDS011;12957;49.434;8.684;2022-07-18T14:31:54;1.35;;;1.25;;
24897;SDS011;12957;49.434;8.684;2022-07-18T14:34:19;3.13;;;1.50;;
24897;SDS011;12957;49.434;8.684;2022-07-18T14:36:45;1.38;;;1.27;;
24897;SDS011;12957;49.434;8.684;2022-07-18T14:39:10;1.55;;;1.50;;
24897;SDS011;12957;49.434;8.684;2022-07-18T14:41:36;3.33;;;1.77;;
24897;SDS011;12957;49.434;8.684;2022-07-18T14:44:01;1.77;;;1.52;;
24897;SDS011;12957;49.434;8.684;2022-07-18T14:46:27;4.13;;;1.58;;
24897;SDS011;12957;49.434;8.684;2022-07-18T14:48:53;1.40;;;1.30;;
24897;SDS011;12957;49.434;8.684;2022-07-18T14:51:19;2.20;;;1.45;;
24897;SDS011;12957;49.434;8.684;2022-07-18T14:53:44;1.40;;;1.30;;
24897;SDS011;12957;49.434;8.684;2022-07-18T14:56:10;2.05;;;1.30;;
24897;SDS011;12957;49.434;8.684;2022-07-18T14:58:35;3.55;;;1.30;;
24897;SDS011;12957;49.434;8.684;2022-07-18T15:01:01;1.58;;;1.40;;
24897;SDS011;12957;49.434;8.684;2022-07-18T15:03:26;1.67;;;1.58;;
24897;SDS011;12957;49.434;8.684;2022-07-18T15:05:52;4.88;;;1.75;;
24897;SDS011;12957;49.434;8.684;2022-07-18T15:08:17;2.38;;;1.20;;
24897;SDS011;12957;49.434;8.684;2022-07-18T15:10:43;2.67;;;1.73;;
24897;SDS011;12957;49.434;8.684;2022-07-18T15:13:08;5.43;;;1.67;;
24897;SDS011;12957;49.434;8.684;2022-07-18T15:15:34;2.40;;;1.30;;